Time;durP1;ratioP1;P1;durP2;ratioP2;P2;SDS_P1;SDS_P2;PMS_P1;PMS_P2;Temp;Humidity;BMP_temperature;BMP_pressure;BME280_temperature;BME280_humidity;BME280_pressure;Samples;Min_cycle;Max_cycle;Signal;HPM_P1;HPM_P2
2023/05/25 00:02:19;;;;;;;23.30;18.30;;;;;;;13.74;78.66;100877.02;104177;275;38583;-72
2023/05/25 00:04:53;;;;;;;25.50;18.60;;;;;;;13.74;78.83;100873.67;104197;275;38727;-74
2023/05/25 00:07:29;;;;;;;26.00;19.50;;;;;;;13.71;78.82;100880.80;104177;275;38575;-73
2023/05/25 00:10:03;;;;;;;23.70;18.90;;;;;;;13.65;78.87;100878.83;104159;275;39188;-73
2023/05/25 00:12:37;;;;;;;22.70;18.40;;;;;;;13.60;78.92;100880.41;104149;276;38218;-74
2023/05/25 00:15:15;;;;;;;23.20;17.90;;;;;;;13.57;78.88;100878.98;103986;276;38269;-73
2023/05/25 00:17:49;;;;;;;21.50;17.90;;;;;;;13.53;79.17;100879.86;104151;275;39310;-74
2023/05/25 00:20:27;;;;;;;25.20;19.00;;;;;;;13.50;79.24;100880.66;104153;275;38620;-74
2023/05/25 00:23:02;;;;;;;22.30;19.40;;;;;;;13.48;79.42;100882.52;104058;276;175079;-74
2023/05/25 00:25:36;;;;;;;24.80;19.30;;;;;;;13.47;79.58;100882.91;103994;276;38326;-73
2023/05/25 00:28:11;;;;;;;26.40;18.40;;;;;;;13.46;79.73;100882.08;104145;275;38504;-74
2023/05/25 00:30:45;;;;;;;24.50;18.50;;;;;;;13.47;79.84;100881.86;104151;275;37502;-73
2023/05/25 00:33:18;;;;;;;26.30;20.50;;;;;;;13.48;80.00;100880.92;104198;275;38390;-73
2023/05/25 00:35:52;;;;;;;25.20;20.40;;;;;;;13.50;80.25;100884.89;104150;276;39376;-74
2023/05/25 00:38:27;;;;;;;26.10;20.50;;;;;;;13.51;80.39;100884.50;104182;275;38304;-74
2023/05/25 00:41:01;;;;;;;28.80;20.50;;;;;;;13.56;80.48;100883.21;104209;275;39415;-73
2023/05/25 00:43:35;;;;;;;26.10;20.20;;;;;;;13.62;80.58;100882.09;104071;277;38818;-74
2023/05/25 00:46:09;;;;;;;29.60;20.30;;;;;;;13.64;80.38;100885.52;104198;275;38556;-74
2023/05/25 00:48:44;;;;;;;33.00;22.00;;;;;;;13.66;80.54;100885.09;104226;275;39392;-74
2023/05/25 00:51:19;;;;;;;33.30;23.10;;;;;;;13.69;80.76;100884.06;104149;275;38234;-74
2023/05/25 00:53:53;;;;;;;31.80;22.10;;;;;;;13.71;80.84;100888.40;104183;275;38274;-74
2023/05/25 00:56:29;;;;;;;32.50;21.80;;;;;;;13.74;80.89;100886.11;104199;275;38534;-74
2023/05/25 00:59:06;;;;;;;31.70;22.10;;;;;;;13.78;80.85;100888.75;104141;276;38378;-74
2023/05/25 01:01:40;;;;;;;34.30;21.70;;;;;;;13.84;80.96;100890.63;104072;275;175103;-74
2023/05/25 01:04:15;;;;;;;36.70;23.70;;;;;;;13.88;81.01;100892.20;104004;276;39784;-75
2023/05/25 01:06:51;;;;;;;35.40;24.50;;;;;;;13.89;80.89;100891.09;104137;275;38519;-73
2023/05/25 01:09:25;;;;;;;37.30;24.50;;;;;;;13.92;80.97;100897.42;104140;275;38814;-73
2023/05/25 01:12:00;;;;;;;35.30;23.60;;;;;;;13.93;80.99;100900.39;104151;275;38502;-73
2023/05/25 01:14:34;;;;;;;39.10;24.00;;;;;;;13.94;81.07;100899.29;104152;275;38235;-75
2023/05/25 01:17:09;;;;;;;36.10;25.10;;;;;;;14.00;81.10;100899.75;104140;275;38502;-75
2023/05/25 01:19:44;;;;;;;38.30;26.60;;;;;;;14.01;80.95;100899.86;104188;275;39595;-73
2023/05/25 01:22:24;;;;;;;41.90;26.50;;;;;;;14.01;81.12;100900.42;104170;275;38494;-74
2023/05/25 01:25:02;;;;;;;40.30;26.10;;;;;;;14.01;81.13;100902.51;104177;275;38269;-74
2023/05/25 01:27:38;;;;;;;41.00;25.90;;;;;;;14.03;81.19;100901.88;104238;275;38737;-74
2023/05/25 01:30:16;;;;;;;38.80;24.80;;;;;;;14.06;81.16;100901.40;104009;265;39446;-73
2023/05/25 01:32:50;;;;;;;42.60;27.30;;;;;;;14.10;81.36;100903.70;104141;275;38022;-71
2023/05/25 01:35:24;;;;;;;45.20;28.10;;;;;;;14.13;81.28;100900.92;104183;276;39401;-73
2023/05/25 01:38:00;;;;;;;46.90;28.30;;;;;;;14.16;81.38;100898.83;104200;275;38275;-73
2023/05/25 01:40:34;;;;;;;45.20;27.10;;;;;;;14.17;81.28;100898.12;103830;275;40225;-73
2023/05/25 01:43:08;;;;;;;46.90;27.80;;;;;;;14.17;81.23;100898.30;104169;275;38440;-73
2023/05/25 01:45:42;;;;;;;44.80;26.90;;;;;;;14.18;81.11;100895.95;104157;275;39696;-72
2023/05/25 01:48:22;;;;;;;44.50;27.00;;;;;;;14.18;81.07;100895.08;104153;275;39921;-73
2023/05/25 01:51:00;;;;;;;43.10;27.90;;;;;;;14.20;81.14;100891.48;104177;276;39696;-72
2023/05/25 01:53:36;;;;;;;;;;;;;;;14.20;81.35;100892.16;104137;275;38587;-74
2023/05/25 01:56:11;;;;;;;49.30;29.30;;;;;;;14.14;81.43;100890.88;104156;276;38573;-74
2023/05/25 01:58:47;;;;;;;46.20;29.30;;;;;;;14.12;81.50;100891.30;104151;275;38364;-73
2023/05/25 02:01:21;;;;;;;46.10;27.90;;;;;;;14.11;81.52;100891.90;104158;275;38268;-71
2023/05/25 02:03:55;;;;;;;47.70;27.30;;;;;;;14.13;81.56;100888.80;104142;275;39425;-73
2023/05/25 02:06:29;;;;;;;41.40;25.90;;;;;;;14.14;81.54;100890.88;103953;277;41338;-72
2023/05/25 02:09:03;;;;;;;42.90;27.20;;;;;;;14.14;81.58;100892.80;104144;275;38919;-74
2023/05/25 02:11:37;;;;;;;44.60;27.40;;;;;;;14.17;81.68;100896.00;104160;263;38549;-74
2023/05/25 02:14:11;;;;;;;41.80;26.80;;;;;;;14.18;81.61;100896.84;104185;275;38246;-74
2023/05/25 02:16:46;;;;;;;41.40;27.50;;;;;;;14.18;81.69;100895.08;104170;275;38753;-74
2023/05/25 02:19:20;;;;;;;44.10;26.80;;;;;;;14.20;81.69;100893.59;104039;276;39458;-74
2023/05/25 02:21:54;;;;;;;37.20;26.80;;;;;;;14.25;81.62;100887.58;104156;275;38545;-75
2023/05/25 02:24:28;;;;;;;42.60;26.70;;;;;;;14.28;81.61;100890.41;104146;275;38618;-73
2023/05/25 02:27:02;;;;;;;43.80;27.10;;;;;;;14.29;81.61;100888.64;104108;276;39287;-75
2023/05/25 02:29:37;;;;;;;41.20;26.60;;;;;;;14.26;81.43;100886.14;104156;275;38415;-74
2023/05/25 02:32:11;;;;;;;43.50;26.80;;;;;;;14.24;81.47;100897.98;104135;276;40007;-73
2023/05/25 02:34:46;;;;;;;39.60;26.10;;;;;;;14.25;81.62;100896.89;104014;275;39632;-73
2023/05/25 02:37:24;;;;;;;36.50;25.00;;;;;;;14.25;81.60;100897.20;104117;275;38483;-73
2023/05/25 02:39:58;;;;;;;34.50;24.50;;;;;;;14.28;81.67;100899.53;104170;275;38277;-74
2023/05/25 02:42:32;;;;;;;35.00;24.90;;;;;;;14.31;81.79;100898.52;104141;275;38275;-73
2023/05/25 02:45:09;;;;;;;37.10;26.10;;;;;;;14.33;81.67;100905.30;104161;275;38257;-73
2023/05/25 02:47:43;;;;;;;37.00;26.10;;;;;;;14.32;81.64;100906.92;104166;275;38739;-73
2023/05/25 02:50:18;;;;;;;36.00;24.70;;;;;;;14.33;81.67;100909.48;104146;275;38491;-71
2023/05/25 02:52:52;;;;;;;35.00;25.60;;;;;;;14.33;81.66;100912.30;104134;275;40106;-73
2023/05/25 02:55:26;;;;;;;37.30;24.80;;;;;;;14.34;81.59;100912.08;104151;275;38568;-73
2023/05/25 02:58:00;;;;;;;35.40;25.30;;;;;;;14.37;81.79;100908.08;104005;275;40064;-73
2023/05/25 03:00:35;;;;;;;35.30;25.80;;;;;;;14.40;81.75;100905.30;104171;275;39432;-73
2023/05/25 03:03:09;;;;;;;37.60;25.10;;;;;;;14.39;81.55;100904.85;104183;275;39241;-73
2023/05/25 03:05:57;;;;;;;33.80;25.30;;;;;;;14.38;81.52;100906.66;104158;275;38225;-73
2023/05/25 03:08:32;;;;;;;31.10;24.20;;;;;;;14.37;81.54;100910.88;104169;274;39958;-74
2023/05/25 03:11:06;;;;;;;35.30;24.80;;;;;;;14.36;81.43;100914.98;104139;275;38507;-73
2023/05/25 03:13:40;;;;;;;31.10;23.00;;;;;;;14.38;81.48;100919.65;104134;276;38413;-74
2023/05/25 03:16:14;;;;;;;38.40;25.00;;;;;;;14.39;81.49;100916.23;104139;275;38317;-73
2023/05/25 03:18:48;;;;;;;32.00;24.30;;;;;;;14.42;81.72;100921.35;104169;275;38308;-73
2023/05/25 03:21:22;;;;;;;37.30;26.40;;;;;;;14.44;81.61;100919.86;104133;275;38305;-74
2023/05/25 03:23:56;;;;;;;35.20;24.50;;;;;;;14.45;81.69;100928.43;104181;275;38237;-74
2023/05/25 03:26:31;;;;;;;35.70;24.80;;;;;;;14.43;81.47;100927.83;103995;276;38258;-74
2023/05/25 03:29:06;;;;;;;32.20;23.70;;;;;;;14.42;81.55;100935.27;104188;276;39380;-73
2023/05/25 03:31:40;;;;;;;30.80;22.70;;;;;;;14.42;81.56;100937.52;104169;276;39684;-73
2023/05/25 03:34:19;;;;;;;35.50;24.80;;;;;;;14.44;81.61;100944.97;104152;275;39418;-74
2023/05/25 03:36:54;;;;;;;37.20;26.00;;;;;;;14.42;81.63;100942.95;104199;275;38257;-73
2023/05/25 03:39:29;;;;;;;35.70;25.10;;;;;;;14.43;81.70;100944.31;104214;275;38750;-72
2023/05/25 03:42:05;;;;;;;32.90;24.60;;;;;;;14.44;81.84;100940.95;104172;275;38264;-74
2023/05/25 03:44:40;;;;;;;34.30;23.70;;;;;;;14.44;81.62;100940.60;104113;276;39115;-74
2023/05/25 03:47:14;;;;;;;37.30;24.50;;;;;;;14.47;81.70;100939.25;104084;274;38717;-74
2023/05/25 03:49:51;;;;;;;37.20;25.80;;;;;;;14.46;81.60;100932.77;103954;276;172351;-74
2023/05/25 03:52:25;;;;;;;36.50;26.30;;;;;;;14.49;81.83;100934.26;103530;276;724081;-72
2023/05/25 03:55:00;;;;;;;35.90;25.10;;;;;;;14.50;81.64;100938.60;104036;276;38673;-74
2023/05/25 03:57:34;;;;;;;33.20;24.20;;;;;;;14.53;81.71;100937.80;104040;276;38238;-73
2023/05/25 04:00:15;;;;;;;33.30;24.00;;;;;;;14.53;81.63;100939.52;104056;276;38368;-72
2023/05/25 04:02:49;;;;;;;34.40;23.70;;;;;;;14.55;81.57;100938.73;104040;276;39423;-71
2023/05/25 04:05:23;;;;;;;35.90;23.60;;;;;;;14.60;81.64;100941.84;103928;276;39994;-73
2023/05/25 04:07:58;;;;;;;35.90;24.10;;;;;;;14.63;81.59;100944.51;104045;276;38413;-73
2023/05/25 04:10:32;;;;;;;37.80;25.40;;;;;;;14.64;81.59;100944.63;103993;276;38546;-73
2023/05/25 04:13:06;;;;;;;34.70;24.80;;;;;;;14.64;81.46;100945.17;104050;276;38279;-75
2023/05/25 04:15:40;;;;;;;31.90;25.00;;;;;;;14.64;81.46;100950.09;104043;276;39498;-74
2023/05/25 04:18:14;;;;;;;34.40;23.50;;;;;;;14.63;81.39;100948.89;104051;276;38234;-74
2023/05/25 04:20:49;;;;;;;37.20;24.70;;;;;;;14.64;81.38;100948.13;104034;276;38788;-74
2023/05/25 04:23:24;;;;;;;34.40;25.50;;;;;;;14.67;81.43;100948.70;104053;276;39641;-73
2023/05/25 04:25:59;;;;;;;37.30;25.00;;;;;;;14.74;81.30;100953.00;104103;276;38266;-73
2023/05/25 04:28:34;;;;;;;33.70;24.30;;;;;;;14.79;81.49;100957.15;103907;276;171995;-75
2023/05/25 04:31:13;;;;;;;31.20;23.00;;;;;;;14.84;81.59;100958.13;104069;276;38941;-73
2023/05/25 04:33:49;;;;;;;32.30;23.90;;;;;;;14.90;81.33;100955.20;104082;276;38869;-73
2023/05/25 04:36:27;;;;;;;35.90;25.10;;;;;;;14.94;81.15;100957.48;104056;276;39477;-73
2023/05/25 04:39:03;;;;;;;31.30;24.00;;;;;;;15.00;81.37;100952.27;104089;276;38258;-74
2023/05/25 04:41:38;;;;;;;36.60;26.30;;;;;;;15.06;81.06;100952.55;104017;276;39552;-73
2023/05/25 04:44:13;;;;;;;35.60;24.50;;;;;;;15.07;80.87;100952.29;104069;276;39634;-74
2023/05/25 04:46:47;;;;;;;35.80;25.70;;;;;;;15.10;80.74;100948.13;104054;276;39795;-74
2023/05/25 04:49:21;;;;;;;32.50;24.00;;;;;;;15.13;80.33;100949.05;104085;276;38627;-73
2023/05/25 04:51:56;;;;;;;32.70;25.20;;;;;;;15.15;80.25;100958.28;104057;276;38391;-74
2023/05/25 04:54:31;;;;;;;35.70;24.70;;;;;;;15.16;80.12;100955.19;104077;276;38361;-74
2023/05/25 04:57:06;;;;;;;33.50;26.00;;;;;;;15.18;80.08;100961.07;104050;276;39668;-74
2023/05/25 04:59:41;;;;;;;36.20;23.50;;;;;;;15.18;79.94;100962.67;104116;276;38258;-73
2023/05/25 05:02:18;;;;;;;33.00;22.90;;;;;;;15.18;79.71;100964.24;103958;276;172283;-73
2023/05/25 05:04:53;;;;;;;33.80;24.00;;;;;;;15.18;79.81;100964.95;104062;276;39529;-73
2023/05/25 05:07:28;;;;;;;34.20;24.40;;;;;;;15.17;79.66;100963.41;104069;276;38507;-74
2023/05/25 05:10:03;;;;;;;35.80;24.70;;;;;;;15.16;79.45;100965.73;103909;276;175061;-74
2023/05/25 05:12:37;;;;;;;30.80;24.20;;;;;;;15.18;79.56;100962.67;104049;276;38922;-73
2023/05/25 05:15:19;;;;;;;33.80;23.80;;;;;;;15.19;79.45;100964.70;104045;276;38488;-73
2023/05/25 05:17:57;;;;;;;31.30;23.00;;;;;;;15.17;79.50;100962.53;104036;276;38888;-74
2023/05/25 05:20:32;;;;;;;30.10;21.40;;;;;;;15.16;79.34;100960.46;103944;276;39358;-71
2023/05/25 05:23:11;;;;;;;34.10;23.50;;;;;;;15.16;79.27;100962.61;104126;276;38245;-73
2023/05/25 05:25:51;;;;;;;33.00;23.70;;;;;;;15.15;79.53;100968.63;104077;276;38334;-73
2023/05/25 05:28:27;;;;;;;30.60;21.80;;;;;;;15.17;79.57;100972.39;104026;276;175061;-72
2023/05/25 05:31:02;;;;;;;30.10;22.00;;;;;;;15.18;79.59;100977.43;104122;276;38805;-71
2023/05/25 05:33:38;;;;;;;30.40;21.70;;;;;;;15.21;79.22;100977.63;103915;277;39625;-73
2023/05/25 05:36:12;;;;;;;30.00;22.70;;;;;;;15.23;79.27;100980.16;104124;276;38241;-73
2023/05/25 05:38:47;;;;;;;29.20;22.50;;;;;;;15.24;79.21;100981.71;104107;276;38234;-74
2023/05/25 05:41:22;;;;;;;29.80;22.40;;;;;;;15.27;79.33;100978.78;104076;276;39882;-73
2023/05/25 05:43:56;;;;;;;31.00;23.90;;;;;;;15.31;79.33;100977.36;104058;276;39633;-73
2023/05/25 05:46:30;;;;;;;30.40;22.40;;;;;;;15.33;79.25;100981.80;104095;276;38259;-73
2023/05/25 05:49:05;;;;;;;27.40;21.90;;;;;;;15.37;79.33;100986.73;104103;276;40141;-74
2023/05/25 05:51:40;;;;;;;30.10;22.00;;;;;;;15.38;78.92;100991.23;103263;276;900417;-73
2023/05/25 05:54:14;;;;;;;29.50;21.50;;;;;;;15.42;78.88;100996.16;104155;276;39755;-72
2023/05/25 05:56:52;;;;;;;30.80;22.00;;;;;;;15.47;78.93;100999.79;103901;278;38231;-72
2023/05/25 05:59:28;;;;;;;31.40;22.90;;;;;;;15.50;78.64;101000.34;103964;276;174436;-72
2023/05/25 06:02:03;;;;;;;32.70;23.50;;;;;;;15.49;78.60;101004.59;103894;276;38270;-73
2023/05/25 06:04:40;;;;;;;31.20;22.90;;;;;;;15.51;78.63;101008.02;103823;276;38528;-71
2023/05/25 06:07:15;;;;;;;29.80;22.30;;;;;;;15.53;78.59;101010.58;104118;276;39184;-71
2023/05/25 06:09:52;;;;;;;31.80;21.90;;;;;;;15.59;78.61;101011.50;104086;276;38606;-73
2023/05/25 06:12:26;;;;;;;30.20;23.10;;;;;;;15.61;78.25;101014.93;104126;276;38729;-72
2023/05/25 06:15:05;;;;;;;31.40;23.00;;;;;;;15.62;78.29;101015.23;104123;276;39697;-72
2023/05/25 06:17:42;;;;;;;35.20;23.50;;;;;;;15.63;78.28;101010.63;104124;276;38534;-72
2023/05/25 06:20:17;;;;;;;29.60;23.00;;;;;;;15.70;78.44;101012.41;103995;277;39683;-73
2023/05/25 06:22:51;;;;;;;31.20;21.90;;;;;;;15.76;78.06;101018.64;104112;276;38237;-75
2023/05/25 06:25:26;;;;;;;30.30;22.00;;;;;;;15.80;78.16;101023.02;104131;276;38719;-74
2023/05/25 06:28:00;;;;;;;30.30;22.60;;;;;;;15.86;78.01;101021.84;103508;276;899116;-73
2023/05/25 06:30:34;;;;;;;29.80;22.70;;;;;;;15.90;77.80;101024.80;104109;276;38248;-74
2023/05/25 06:33:14;;;;;;;32.10;22.00;;;;;;;15.91;77.77;101023.67;104097;276;38970;-73
2023/05/25 06:35:51;;;;;;;29.20;22.30;;;;;;;15.97;77.57;101024.26;104166;264;38475;-74
2023/05/25 06:38:26;;;;;;;29.60;21.80;;;;;;;16.00;77.26;101026.89;104187;264;38242;-73
2023/05/25 06:41:02;;;;;;;29.20;22.40;;;;;;;16.02;77.15;101029.65;104165;276;39444;-73
2023/05/25 06:43:36;;;;;;;28.90;22.20;;;;;;;16.06;77.20;101032.79;104162;276;39336;-76
2023/05/25 06:46:16;;;;;;;28.90;23.00;;;;;;;16.08;77.02;101031.44;104120;276;40063;-74
2023/05/25 06:48:50;;;;;;;33.90;24.20;;;;;;;16.08;77.12;101029.35;104132;269;39377;-72
2023/05/25 06:51:27;;;;;;;32.40;24.10;;;;;;;16.07;76.73;101029.39;104024;277;38961;-73
2023/05/25 06:54:02;;;;;;;33.40;22.90;;;;;;;16.07;76.66;101033.45;104085;276;38387;-71
2023/05/25 06:56:36;;;;;;;33.40;22.90;;;;;;;16.06;76.58;101038.08;104139;276;38297;-73
2023/05/25 06:59:11;;;;;;;31.30;22.80;;;;;;;16.06;76.39;101040.03;104095;276;37911;-71
2023/05/25 07:01:46;;;;;;;30.20;22.50;;;;;;;16.05;76.54;101041.10;104132;264;39895;-70
2023/05/25 07:04:21;;;;;;;32.40;24.10;;;;;;;16.03;76.36;101038.06;104149;276;38455;-75
2023/05/25 07:06:56;;;;;;;39.10;25.10;;;;;;;16.03;76.53;101036.10;104089;276;38285;-72
2023/05/25 07:09:33;;;;;;;31.30;21.90;;;;;;;16.04;76.65;101032.19;104115;276;38382;-73
2023/05/25 07:12:11;;;;;;;29.40;22.00;;;;;;;16.09;76.63;101032.98;103830;278;39380;-73
2023/05/25 07:14:51;;;;;;;29.80;21.90;;;;;;;16.15;76.68;101031.29;104169;276;38371;-72
2023/05/25 07:17:27;;;;;;;30.90;22.10;;;;;;;16.19;76.55;101031.42;104018;276;174988;-73
2023/05/25 07:20:02;;;;;;;30.30;22.60;;;;;;;16.26;76.68;101025.97;104050;276;39495;-73
2023/05/25 07:22:37;;;;;;;25.90;21.50;;;;;;;16.35;76.80;101024.83;104112;276;38289;-75
2023/05/25 07:25:14;;;;;;;28.60;21.20;;;;;;;16.41;76.67;101025.02;104072;264;38236;-75
2023/05/25 07:27:53;;;;;;;27.20;21.20;;;;;;;16.48;76.54;101027.27;104097;276;38267;-73
2023/05/25 07:30:28;;;;;;;26.50;20.90;;;;;;;16.53;75.96;101028.60;103895;276;38707;-73
2023/05/25 07:33:03;;;;;;;26.50;21.00;;;;;;;16.56;75.87;101026.36;104060;276;38271;-72
2023/05/25 07:35:37;;;;;;;27.50;20.80;;;;;;;16.63;75.98;101027.02;104047;276;39089;-74
2023/05/25 07:38:11;;;;;;;27.70;21.60;;;;;;;16.71;75.73;101027.33;104003;276;38398;-75
2023/05/25 07:40:47;;;;;;;25.70;20.20;;;;;;;16.77;75.43;101029.15;104039;276;39620;-75
2023/05/25 07:43:22;;;;;;;25.60;20.40;;;;;;;16.85;74.97;101030.14;104066;276;39445;-75
2023/05/25 07:45:56;;;;;;;26.80;20.00;;;;;;;16.90;75.02;101031.09;104011;276;39986;-74
2023/05/25 07:48:32;;;;;;;29.00;21.20;;;;;;;16.95;74.71;101030.63;104048;276;39668;-74
2023/05/25 07:51:06;;;;;;;31.60;23.40;;;;;;;17.00;74.53;101029.10;103836;278;38460;-74
2023/05/25 07:53:41;;;;;;;30.70;24.20;;;;;;;17.04;74.08;101026.44;104104;276;38257;-74
2023/05/25 07:56:17;;;;;;;28.40;22.70;;;;;;;17.08;73.91;101025.19;104064;276;38859;-74
2023/05/25 07:58:51;;;;;;;30.10;21.00;;;;;;;17.14;74.06;101025.92;104100;276;38493;-71
2023/05/25 08:01:25;;;;;;;28.80;20.30;;;;;;;17.22;74.17;101028.48;103850;277;39399;-73
2023/05/25 08:04:00;;;;;;;26.90;21.00;;;;;;;17.30;74.04;101028.89;103924;277;38366;-73
2023/05/25 08:06:34;;;;;;;27.60;21.10;;;;;;;17.40;73.49;101030.79;103816;278;39318;-73
2023/05/25 08:09:09;;;;;;;26.00;20.50;;;;;;;17.46;73.17;101028.54;103931;277;38227;-73
2023/05/25 08:11:44;;;;;;;23.90;19.80;;;;;;;17.50;72.88;101029.00;103970;277;39176;-74
2023/05/25 08:14:22;;;;;;;27.20;20.60;;;;;;;17.58;73.46;101029.45;103899;277;39809;-74
2023/05/25 08:16:57;;;;;;;28.60;20.50;;;;;;;17.72;73.48;101028.45;103903;266;38788;-72
2023/05/25 08:19:31;;;;;;;27.20;20.00;;;;;;;17.88;73.26;101026.88;103926;277;38753;-73
2023/05/25 08:22:06;;;;;;;25.50;20.60;;;;;;;18.01;72.71;101026.99;103884;277;39943;-73
2023/05/25 08:24:41;;;;;;;22.40;18.80;;;;;;;18.10;71.98;101027.17;103887;277;38289;-73
2023/05/25 08:27:15;;;;;;;29.00;20.60;;;;;;;18.22;72.08;101025.23;103869;277;38269;-73
2023/05/25 08:29:50;;;;;;;31.20;21.60;;;;;;;18.42;72.27;101028.27;103935;277;38394;-73
2023/05/25 08:32:25;;;;;;;27.70;20.80;;;;;;;18.62;71.70;101034.48;103942;277;38368;-74
2023/05/25 08:35:00;;;;;;;25.30;20.10;;;;;;;18.79;70.74;101029.54;103904;277;38341;-74
2023/05/25 08:37:35;;;;;;;23.00;19.40;;;;;;;18.94;70.49;101030.95;103883;277;39930;-73
2023/05/25 08:40:15;;;;;;;22.50;19.00;;;;;;;19.19;70.76;101031.13;103913;277;39641;-72
2023/05/25 08:42:50;;;;;;;21.90;19.50;;;;;;;19.94;72.29;101022.36;103965;277;38437;-74
2023/05/25 08:45:24;;;;;;;22.60;18.10;;;;;;;20.93;69.44;101021.23;103948;277;38378;-74
2023/05/25 08:48:01;;;;;;;19.00;16.70;;;;;;;21.83;67.42;101015.73;103954;277;39646;-72
2023/05/25 08:50:35;;;;;;;17.70;15.50;;;;;;;22.69;64.72;101013.66;103895;277;38233;-75
2023/05/25 08:53:11;;;;;;;18.50;16.60;;;;;;;23.29;62.34;101010.28;103918;277;38797;-72
2023/05/25 08:55:45;;;;;;;17.30;15.60;;;;;;;23.91;60.28;101010.15;103947;277;38699;-74
2023/05/25 08:58:24;;;;;;;17.30;15.20;;;;;;;24.71;57.60;101013.31;103885;277;39655;-73
2023/05/25 09:00:58;;;;;;;;;;;;;;;25.32;55.93;101010.29;104063;276;39552;-72
2023/05/25 09:03:33;;;;;;;16.60;14.90;;;;;;;25.63;54.31;101004.89;104033;276;38735;-73
2023/05/25 09:06:07;;;;;;;16.30;13.80;;;;;;;25.66;53.03;101004.45;103873;277;39116;-73
2023/05/25 09:08:42;;;;;;;15.20;13.70;;;;;;;25.61;52.02;101004.09;104074;276;38276;-74
2023/05/25 09:11:16;;;;;;;16.70;14.80;;;;;;;25.72;51.91;101007.30;104059;276;38602;-74
2023/05/25 09:13:50;;;;;;;15.50;13.90;;;;;;;25.73;50.89;101007.38;104038;276;38487;-73
2023/05/25 09:16:24;;;;;;;18.10;15.80;;;;;;;25.67;49.97;101011.52;104003;276;39833;-74
2023/05/25 09:18:59;;;;;;;17.60;15.50;;;;;;;25.56;49.14;101007.86;104039;276;38239;-73
2023/05/25 09:21:33;;;;;;;17.50;15.30;;;;;;;25.38;49.50;101013.80;104058;276;38751;-73
2023/05/25 09:24:09;;;;;;;16.70;15.10;;;;;;;25.24;49.47;101013.27;104016;276;38375;-76
2023/05/25 09:26:47;;;;;;;16.40;14.20;;;;;;;25.09;49.93;101013.59;104008;276;38814;-73
2023/05/25 09:29:21;;;;;;;16.70;14.60;;;;;;;25.05;50.94;101011.58;104117;276;39125;-73
2023/05/25 09:31:55;;;;;;;18.00;14.80;;;;;;;25.14;51.22;101010.23;104049;276;38380;-73
2023/05/25 09:34:33;;;;;;;18.20;15.90;;;;;;;25.27;50.90;101015.54;104171;276;39376;-73
2023/05/25 09:37:15;;;;;;;17.10;13.90;;;;;;;25.27;50.70;101015.85;104085;276;39029;-74
2023/05/25 09:39:53;;;;;;;15.80;14.10;;;;;;;25.30;50.29;101013.85;104140;276;38359;-73
2023/05/25 09:42:27;;;;;;;17.20;15.40;;;;;;;25.27;49.42;101014.46;104099;276;38305;-74
2023/05/25 09:45:01;;;;;;;17.30;15.60;;;;;;;25.16;48.97;101019.17;104062;276;38295;-74
2023/05/25 09:47:37;;;;;;;17.90;15.50;;;;;;;25.12;49.07;101021.87;104087;276;39949;-74
2023/05/25 09:50:13;;;;;;;16.00;14.40;;;;;;;25.18;49.52;101022.40;104078;276;38501;-74
2023/05/25 09:52:49;;;;;;;18.00;15.90;;;;;;;25.17;49.99;101022.98;104090;276;38504;-74
2023/05/25 09:55:23;;;;;;;18.60;15.80;;;;;;;25.07;49.23;101028.75;104114;264;39327;-72
2023/05/25 09:58:00;;;;;;;16.80;15.00;;;;;;;24.89;48.65;101031.00;104107;276;38738;-74
2023/05/25 10:00:34;;;;;;;17.10;15.40;;;;;;;24.68;49.38;101031.56;104080;276;38263;-74
2023/05/25 10:03:08;;;;;;;17.40;15.60;;;;;;;24.52;50.05;101032.80;104112;276;38903;-71
2023/05/25 10:05:42;;;;;;;19.80;15.10;;;;;;;24.37;50.11;101029.27;104118;276;38310;-74
2023/05/25 10:08:16;;;;;;;16.90;15.20;;;;;;;24.24;50.55;101027.49;104129;276;38635;-73
2023/05/25 10:10:51;;;;;;;17.60;14.90;;;;;;;24.11;50.56;101028.26;104108;276;38253;-73
2023/05/25 10:13:25;;;;;;;18.80;15.20;;;;;;;23.94;50.74;101029.69;104109;276;38666;-74
2023/05/25 10:15:59;;;;;;;17.20;14.80;;;;;;;23.71;51.26;101032.30;103816;276;39611;-73
2023/05/25 10:18:35;;;;;;;18.70;15.10;;;;;;;23.52;51.64;101032.79;104127;276;38285;-74
2023/05/25 10:21:09;;;;;;;17.00;15.30;;;;;;;23.29;51.75;101036.61;104028;264;174402;-74
2023/05/25 10:23:47;;;;;;;17.10;14.90;;;;;;;23.04;51.85;101037.75;104086;276;38367;-74
2023/05/25 10:26:22;;;;;;;16.30;14.60;;;;;;;22.79;52.45;101042.16;104119;276;38415;-73
2023/05/25 10:29:03;;;;;;;17.10;15.00;;;;;;;22.58;53.13;101042.75;104134;276;38346;-74
2023/05/25 10:31:37;;;;;;;17.00;15.40;;;;;;;22.38;53.47;101040.89;104100;276;38718;-72
2023/05/25 10:34:11;;;;;;;16.20;14.60;;;;;;;22.18;53.79;101036.21;103981;276;38498;-74
2023/05/25 10:36:47;;;;;;;16.50;14.30;;;;;;;22.00;54.61;101034.19;104065;276;38334;-75
2023/05/25 10:39:25;;;;;;;17.10;15.30;;;;;;;21.88;55.18;101035.47;104115;276;38830;-74
2023/05/25 10:42:01;;;;;;;20.20;15.90;;;;;;;21.77;55.70;101036.97;103823;276;39726;-73
2023/05/25 10:44:40;;;;;;;25.20;17.50;;;;;;;21.66;55.66;101027.30;104131;276;38007;-72
2023/05/25 10:47:14;;;;;;;20.00;15.40;;;;;;;21.54;55.75;101029.30;104007;276;38416;-72
2023/05/25 10:50:01;;;;;;;15.90;14.10;;;;;;;21.47;56.73;101022.52;104108;276;38229;-73
2023/05/25 10:52:39;;;;;;;15.70;14.00;;;;;;;21.42;56.49;101026.25;103824;276;38435;-74
2023/05/25 10:55:13;;;;;;;15.60;13.90;;;;;;;21.28;56.21;101026.70;104112;276;39553;-74
2023/05/25 10:57:48;;;;;;;15.10;13.60;;;;;;;21.22;56.94;101026.11;104133;276;38259;-74
2023/05/25 11:00:23;;;;;;;15.40;13.80;;;;;;;21.14;56.62;101025.09;104053;276;38417;-73
2023/05/25 11:02:57;;;;;;;17.40;13.90;;;;;;;21.11;56.99;101027.23;103985;276;188947;-76
2023/05/25 11:05:37;;;;;;;15.00;13.40;;;;;;;21.16;57.69;101022.78;104048;276;39927;-75
2023/05/25 11:08:15;;;;;;;15.10;13.60;;;;;;;21.24;57.67;101020.10;104104;276;39416;-74
2023/05/25 11:10:54;;;;;;;14.60;13.20;;;;;;;21.26;57.69;101019.76;103822;276;38317;-74
2023/05/25 11:13:38;;;;;;;15.50;13.40;;;;;;;21.31;58.05;101020.13;104058;276;38368;-75
2023/05/25 11:16:36;;;;;;;17.20;13.40;;;;;;;21.44;58.49;101017.09;104082;276;38380;-72
2023/05/25 11:19:17;;;;;;;14.70;13.20;;;;;;;21.64;57.99;101014.66;104110;276;38286;-75
2023/05/25 11:21:52;;;;;;;14.40;12.80;;;;;;;21.79;57.91;101012.34;104063;276;39051;-75
2023/05/25 11:24:26;;;;;;;14.30;12.50;;;;;;;21.97;57.60;101009.73;103919;276;38415;-74
2023/05/25 11:27:04;;;;;;;16.60;12.80;;;;;;;22.28;57.95;101009.36;104066;276;38978;-73
2023/05/25 11:29:38;;;;;;;15.20;12.50;;;;;;;22.60;56.84;101006.69;104023;276;39394;-75
2023/05/25 11:32:21;;;;;;;15.50;13.30;;;;;;;23.03;56.27;101004.70;104045;276;39342;-72
2023/05/25 11:34:57;;;;;;;13.60;12.30;;;;;;;23.38;54.71;101002.56;104059;276;39403;-73
2023/05/25 11:37:32;;;;;;;13.30;11.90;;;;;;;23.63;54.09;100995.75;104048;276;38612;-74
2023/05/25 11:40:11;;;;;;;13.00;11.90;;;;;;;23.88;54.15;100990.05;103972;276;171872;-73
2023/05/25 11:42:47;;;;;;;14.30;12.20;;;;;;;24.15;53.73;100984.90;104083;276;39640;-73
2023/05/25 11:45:25;;;;;;;12.70;11.50;;;;;;;24.36;53.07;100982.95;103962;276;189059;-73
2023/05/25 11:47:59;;;;;;;12.40;11.00;;;;;;;24.48;53.14;100987.83;103922;276;39414;-73